THUNDERSTORM

Not for real navigation. The accuracy of this data is not assured See disclaimer for more information



ICAO NAME COUNTRY WIND Kt GUST Kt VIS m TEMP/DEW C BARO METAR
KHBG HATTIESBURG CHAIN MUNICIPAL MS United States 3 0 400 23/23 30.10 KHBG 181224Z AUTO 15003KT 0.25SM FG VV002 23/23 A3010 RMK AO2 T02280228 TS
KMWN Mount Washington NH United States 35 0 1600 12/12 29.92 KMWN 181155Z 29035KT 1/16SM RA FG VV001 12/12 RMK TSB11E26 60094 70111 10139 20118
KGLH GREENVILLE MUNICIPAL AIRPORT MS United States 10 0 1600 23/22 30.06 KGLH 181222Z 23010KT 1 0.5SM -TSRA BR BKN019 BKN060 23/22 A3006 RMK AO2 RAB22 TSB21 PRESRR P0008 T02
KMFI MARSHFIELD MUNICIPAL AIRPORT WI United States 4 0 1600 17/17 30.11 KMFI 181224Z AUTO 05004KT 1SM BR OVC002 17/17 A3011 RMK AO2 T01720172 TS
KPQN Pipestone, Pipestone Municipal MN United States 5 0 1600 16/16 30.12 KPQN 181215Z AUTO 13005KT 1 0.5SM TSBR VV007 16/16 A3012 RMK AO2 VIS 3/4V4

Show more